Time;durP1;ratioP1;P1;durP2;ratioP2;P2;SDS_P1;SDS_P2;PMS_P1;PMS_P2;Temp;Humidity;BMP_temperature;BMP_pressure;BME280_temperature;BME280_humidity;BME280_pressure;Samples;Min_cycle;Max_cycle;Signal;HPM_P1;HPM_P2
2023/01/27 00:01:25;;;;;;;20.33;12.80;;;;;;;2.25;88.80;98334.75;4152119;28;20215;-83
2023/01/27 00:03:29;;;;;;;18.98;12.02;;;;;;;2.25;89.23;98338.16;4154184;28;20213;-84
2023/01/27 00:05:32;;;;;;;22.70;13.23;;;;;;;2.24;89.32;98336.50;4169328;28;20530;-84
2023/01/27 00:07:35;;;;;;;18.88;12.10;;;;;;;2.25;89.07;98347.59;4154033;28;20260;-84
2023/01/27 00:09:40;;;;;;;18.42;12.13;;;;;;;2.29;88.57;98339.75;4149014;28;20214;-83
2023/01/27 00:14:05;;;;;;;26.00;14.38;;;;;;;2.31;88.83;98344.84;4150605;28;20223;-84
2023/01/27 00:16:08;;;;;;;21.48;13.73;;;;;;;2.33;88.54;98351.63;4164415;28;20205;-84
2023/01/27 00:18:11;;;;;;;21.08;13.63;;;;;;;2.30;88.84;98338.00;4168305;28;20202;-83
2023/01/27 00:24:34;;;;;;;18.38;12.43;;;;;;;2.32;88.86;98347.38;4169284;28;20210;-83
2023/01/27 00:25:00;;;;;;;20.77;13.18;;;;;;;2.23;88.23;98341.69;4136698;28;20206;-83
2023/01/27 00:27:07;;;;;;;21.85;14.15;;;;;;;2.22;88.53;98335.69;4168013;28;20233;-83
2023/01/27 00:29:12;;;;;;;22.83;14.40;;;;;;;2.20;88.96;98340.03;4155352;28;20206;-84
2023/01/27 00:33:37;;;;;;;27.35;13.77;;;;;;;2.18;89.25;98335.81;4165666;28;20290;-84
2023/01/27 00:35:40;;;;;;;22.55;13.18;;;;;;;2.20;88.89;98336.63;4154149;28;20229;-84
2023/01/27 00:37:43;;;;;;;20.67;12.70;;;;;;;2.25;88.75;98337.31;4169035;28;20230;-84
2023/01/27 00:39:46;;;;;;;24.63;14.13;;;;;;;2.21;88.51;98339.16;4153113;28;20215;-84
2023/01/27 00:41:49;;;;;;;22.85;13.80;;;;;;;2.22;88.19;98340.81;4155568;28;20207;-83
2023/01/27 00:43:54;;;;;;;21.80;13.90;;;;;;;2.24;88.12;98348.50;4171531;28;20206;-83
2023/01/27 00:45:56;;;;;;;26.40;15.73;;;;;;;2.25;88.06;98339.88;4150725;28;20780;-84
2023/01/27 00:47:59;;;;;;;25.13;13.90;;;;;;;2.20;88.18;98339.22;4150245;28;20238;-83
2023/01/27 00:50:02;;;;;;;22.33;12.98;;;;;;;2.20;87.63;98340.03;4155072;28;20211;-83
2023/01/27 00:52:06;;;;;;;23.65;14.45;;;;;;;2.16;87.51;98337.59;4170253;28;20210;-83
2023/01/27 00:54:09;;;;;;;24.02;14.73;;;;;;;2.11;88.91;98340.31;4168879;28;20670;-83
2023/01/27 00:56:12;;;;;;;27.33;16.23;;;;;;;2.13;88.43;98338.53;4170092;28;20260;-83
2023/01/27 00:58:17;;;;;;;23.80;14.35;;;;;;;2.10;88.64;98333.47;4134105;28;20908;-84
2023/01/27 01:00:21;;;;;;;23.45;15.00;;;;;;;2.11;88.93;98340.31;4172168;28;20198;-84
2023/01/27 01:02:25;;;;;;;23.40;14.40;;;;;;;2.16;88.55;98333.28;4152846;28;20778;-83
2023/01/27 01:04:28;;;;;;;24.90;15.02;;;;;;;2.06;87.88;98337.06;4135095;28;20211;-83
2023/01/27 01:06:31;;;;;;;26.83;16.40;;;;;;;1.96;87.89;98338.22;4169775;28;20238;-84
2023/01/27 01:08:35;;;;;;;29.85;17.50;;;;;;;1.96;88.24;98342.53;4164140;28;20256;-83
2023/01/27 01:10:38;;;;;;;25.75;14.43;;;;;;;1.89;88.07;98344.47;4138427;28;20698;-83
2023/01/27 01:12:41;;;;;;;26.48;15.43;;;;;;;1.77;88.52;98338.81;4133676;28;20223;-83
2023/01/27 01:14:44;;;;;;;24.05;14.43;;;;;;;1.75;88.78;98344.91;4151026;28;20264;-83
2023/01/27 01:16:49;;;;;;;30.40;16.38;;;;;;;1.78;89.20;98350.81;4137489;28;20204;-84
2023/01/27 01:18:53;;;;;;;29.58;16.55;;;;;;;1.79;89.18;98352.50;4148326;28;20260;-83
2023/01/27 01:20:56;;;;;;;26.30;15.35;;;;;;;1.77;89.78;98353.41;4152484;28;20731;-83
2023/01/27 01:23:02;;;;;;;22.08;13.90;;;;;;;1.77;89.22;98351.69;4165669;28;20704;-84
2023/01/27 01:25:06;;;;;;;24.52;14.30;;;;;;;1.62;88.54;98352.13;4138583;28;20655;-84
2023/01/27 01:27:09;;;;;;;28.13;14.27;;;;;;;1.55;88.77;98345.50;4136002;28;20301;-84
2023/01/27 01:29:12;;;;;;;23.17;14.30;;;;;;;1.60;89.34;98347.94;4135031;28;20911;-84
2023/01/27 01:31:18;;;;;;;31.60;16.77;;;;;;;1.62;89.53;98343.59;4135434;28;20694;-83
2023/01/27 01:33:22;;;;;;;26.38;15.57;;;;;;;1.70;89.47;98345.06;4171647;28;20206;-83
2023/01/27 01:35:25;;;;;;;25.60;14.63;;;;;;;1.68;89.16;98346.81;4156943;28;20265;-84
2023/01/27 01:37:28;;;;;;;38.85;16.70;;;;;;;1.69;89.03;98343.38;4172671;28;20832;-84
2023/01/27 01:39:32;;;;;;;21.02;13.40;;;;;;;1.71;88.81;98341.56;4155878;28;20716;-84
2023/01/27 01:41:35;;;;;;;30.20;15.98;;;;;;;1.83;88.95;98337.81;4175391;28;20253;-84
2023/01/27 01:43:38;;;;;;;26.92;16.88;;;;;;;1.82;88.93;98334.41;4172856;28;20206;-83
2023/01/27 01:45:51;;;;;;;26.67;15.15;;;;;;;1.81;88.91;98334.47;4172689;28;20594;-84
2023/01/27 01:47:54;;;;;;;30.05;16.05;;;;;;;1.83;89.58;98343.78;4156519;28;20230;-84
2023/01/27 01:49:58;;;;;;;22.17;13.10;;;;;;;1.85;89.61;98336.88;4172366;28;20256;-84
2023/01/27 01:52:04;;;;;;;26.80;16.38;;;;;;;1.86;89.18;98337.72;4172151;28;20206;-83
2023/01/27 01:54:10;;;;;;;27.77;15.52;;;;;;;1.89;89.17;98329.03;4175659;28;20197;-83
2023/01/27 01:56:17;;;;;;;19.17;11.93;;;;;;;1.90;88.73;98335.84;4156208;28;20218;-84
2023/01/27 01:58:20;;;;;;;20.17;13.07;;;;;;;1.88;88.22;98331.66;4158849;28;20237;-83
2023/01/27 02:00:24;;;;;;;20.35;12.02;;;;;;;1.82;87.49;98331.84;4156770;28;20215;-84
2023/01/27 02:02:27;;;;;;;23.55;13.88;;;;;;;1.79;87.47;98328.50;4150354;28;20310;-84
2023/01/27 02:04:34;;;;;;;17.20;10.73;;;;;;;1.76;87.33;98320.88;4151142;28;20210;-84
2023/01/27 02:06:59;;;;;;;21.73;12.60;;;;;;;1.77;88.08;98323.41;4174031;28;20348;-84
2023/01/27 02:09:21;;;;;;;25.33;14.02;;;;;;;1.80;87.95;98328.44;4173646;28;20213;-84
2023/01/27 02:11:44;;;;;;;20.80;12.73;;;;;;;1.83;87.93;98318.09;4145552;28;20299;-84
2023/01/27 02:14:08;;;;;;;20.63;12.40;;;;;;;1.82;87.72;98316.41;4166498;28;20230;-85
2023/01/27 02:16:33;;;;;;;17.80;11.32;;;;;;;1.82;87.93;98310.41;4150618;28;20337;-83
2023/01/27 02:18:57;;;;;;;20.00;12.20;;;;;;;1.82;88.24;98319.00;4157130;28;20202;-82
2023/01/27 02:21:20;;;;;;;18.77;11.30;;;;;;;1.78;87.18;98309.69;4143232;28;20646;-83
2023/01/27 02:23:55;;;;;;;20.50;11.73;;;;;;;1.76;87.86;98311.47;4171968;28;20211;-83
2023/01/27 02:26:22;;;;;;;23.45;12.50;;;;;;;1.72;88.06;98314.16;4172258;28;20618;-83
2023/01/27 02:28:45;;;;;;;19.33;11.68;;;;;;;1.74;87.63;98315.78;4159804;28;20203;-83
2023/01/27 02:31:09;;;;;;;20.65;12.00;;;;;;;1.69;87.73;98315.09;4145648;28;20215;-83
2023/01/27 02:33:33;;;;;;;19.92;10.85;;;;;;;1.68;87.40;98313.41;4159328;28;20274;-83
2023/01/27 02:36:03;;;;;;;22.02;11.57;;;;;;;1.66;87.65;98310.03;4146186;28;20208;-83
2023/01/27 02:38:30;;;;;;;21.27;11.50;;;;;;;1.69;88.09;98314.25;4140957;28;20688;-83
2023/01/27 02:40:58;;;;;;;19.75;11.82;;;;;;;1.78;88.16;98314.81;4153362;28;20222;-83
2023/01/27 02:43:23;;;;;;;19.98;11.85;;;;;;;1.75;87.86;98314.09;4158803;28;20242;-83
2023/01/27 02:45:46;;;;;;;20.88;12.02;;;;;;;1.82;87.99;98310.41;4150897;28;20211;-83
2023/01/27 02:48:10;;;;;;;19.77;11.90;;;;;;;1.85;88.05;98308.63;4150811;28;20686;-83
2023/01/27 02:50:33;;;;;;;20.40;12.00;;;;;;;1.91;87.60;98306.69;4156480;28;20211;-84
2023/01/27 02:52:58;;;;;;;19.00;11.35;;;;;;;1.91;87.68;98304.13;4142710;28;21336;-83
2023/01/27 02:55:23;;;;;;;18.42;10.45;;;;;;;1.98;87.15;98308.16;4154820;28;20211;-83
2023/01/27 02:57:47;;;;;;;19.45;10.73;;;;;;;1.96;86.85;98311.69;4151615;28;20204;-83
2023/01/27 03:00:37;;;;;;;22.05;11.90;;;;;;;1.89;86.55;98312.75;4172300;28;20600;-83
2023/01/27 03:03:01;;;;;;;20.23;11.60;;;;;;;1.91;86.85;98311.81;4140141;28;20203;-82
2023/01/27 03:05:24;;;;;;;20.83;11.48;;;;;;;1.90;86.59;98317.00;4155522;28;20225;-83
2023/01/27 03:07:47;;;;;;;19.55;10.90;;;;;;;1.96;86.93;98319.41;4153282;28;20263;-83
2023/01/27 03:10:11;;;;;;;22.35;12.20;;;;;;;1.96;86.79;98316.81;4136153;28;20254;-83
2023/01/27 03:12:34;;;;;;;20.90;13.00;;;;;;;1.96;86.99;98319.41;4153898;28;20254;-83
2023/01/27 03:20:21;;;;;;;22.33;12.90;;;;;;;1.81;87.64;98322.44;4169778;28;20239;-83
2023/01/27 03:22:45;;;;;;;21.60;13.35;;;;;;;1.83;87.70;98312.94;4156535;28;20260;-83
2023/01/27 03:25:09;;;;;;;21.27;12.85;;;;;;;1.88;88.70;98308.53;4156576;28;20214;-83
2023/01/27 03:27:34;;;;;;;21.67;11.65;;;;;;;1.92;88.34;98317.78;4138742;28;20227;-83
2023/01/27 03:30:16;;;;;;;19.88;11.52;;;;;;;1.87;88.79;98313.72;4173513;28;20256;-83
2023/01/27 03:32:50;;;;;;;20.48;12.20;;;;;;;1.91;87.99;98322.09;4158622;28;20203;-83
2023/01/27 03:35:48;;;;;;;19.95;11.55;;;;;;;1.97;88.30;98326.19;4164521;28;20198;-83
2023/01/27 03:46:19;;;;;;;19.02;12.13;;;;;;;2.07;87.77;98314.75;4167096;28;20240;-83
2023/01/27 03:48:44;;;;;;;23.55;12.63;;;;;;;2.08;87.71;98316.44;4169726;28;20218;-83
2023/01/27 03:51:08;;;;;;;19.55;10.95;;;;;;;2.10;87.91;98314.66;4151363;28;20217;-83
2023/01/27 03:53:34;;;;;;;21.02;12.00;;;;;;;2.12;87.60;98320.59;4168156;28;20198;-84
2023/01/27 03:55:58;;;;;;;21.27;12.32;;;;;;;2.11;87.33;98319.75;4145291;28;20215;-83
2023/01/27 03:58:24;;;;;;;17.55;10.50;;;;;;;2.12;87.27;98326.59;4169649;28;20238;-83
2023/01/27 04:00:50;;;;;;;18.27;11.00;;;;;;;2.10;87.40;98336.06;4151134;28;20734;-83
2023/01/27 04:08:36;;;;;;;17.98;11.48;;;;;;;2.15;87.40;98328.19;4156528;28;20249;-83
2023/01/27 04:13:43;;;;;;;21.98;12.38;;;;;;;2.18;86.94;98336.69;4167463;28;20332;-83
2023/01/27 04:16:06;;;;;;;20.17;11.30;;;;;;;2.18;86.77;98339.25;4167598;28;20207;-82
2023/01/27 04:18:30;;;;;;;18.08;10.70;;;;;;;2.14;86.70;98329.94;4153844;28;20281;-83
2023/01/27 04:20:53;;;;;;;17.13;11.30;;;;;;;2.16;87.25;98335.88;4168371;28;20293;-83
2023/01/27 04:23:18;;;;;;;15.52;10.07;;;;;;;2.13;87.18;98337.72;4171659;28;20238;-83
2023/01/27 04:25:41;;;;;;;20.13;11.75;;;;;;;2.17;87.08;98339.31;4168030;28;20226;-83
2023/01/27 04:28:07;;;;;;;18.60;11.25;;;;;;;2.26;86.40;98336.44;4162929;28;20735;-83
2023/01/27 04:30:30;;;;;;;17.33;11.07;;;;;;;2.22;86.59;98327.13;4166218;28;20214;-83
2023/01/27 04:32:53;;;;;;;20.00;11.50;;;;;;;2.11;86.46;98335.19;4154907;28;21959;-83
2023/01/27 04:35:17;;;;;;;21.60;12.10;;;;;;;2.09;87.08;98339.53;4143859;28;20309;-84
2023/01/27 04:37:43;;;;;;;23.13;13.18;;;;;;;2.08;86.41;98340.41;4155968;28;20218;-83
2023/01/27 04:40:10;;;;;;;24.23;13.52;;;;;;;2.08;86.46;98342.16;4141112;28;20208;-83
2023/01/27 04:42:33;;;;;;;23.77;12.77;;;;;;;2.10;86.80;98330.09;4153053;28;20207;-84
2023/01/27 04:44:57;;;;;;;21.85;12.63;;;;;;;2.10;87.06;98333.47;4171260;28;20217;-83
2023/01/27 04:47:22;;;;;;;25.27;12.90;;;;;;;2.10;86.89;98336.06;4169354;28;20218;-84
2023/01/27 04:49:46;;;;;;;23.02;12.63;;;;;;;2.12;86.84;98342.00;4168668;28;20287;-83
2023/01/27 04:52:09;;;;;;;20.77;11.65;;;;;;;2.14;86.96;98336.81;4153754;28;20210;-84
2023/01/27 04:54:32;;;;;;;16.77;11.23;;;;;;;2.15;86.67;98336.78;4155331;28;20199;-84
2023/01/27 04:56:59;;;;;;;17.08;10.90;;;;;;;2.12;86.40;98333.44;4155127;28;20210;-84
2023/01/27 04:59:23;;;;;;;16.10;10.45;;;;;;;2.10;86.52;98335.22;4159158;28;20211;-84
2023/01/27 05:01:46;;;;;;;17.98;10.98;;;;;;;2.13;86.07;98342.84;4143712;28;20203;-83
2023/01/27 05:04:09;;;;;;;17.85;11.15;;;;;;;2.13;85.91;98342.84;4167449;28;20214;-84
2023/01/27 05:06:33;;;;;;;16.48;10.50;;;;;;;2.14;86.50;98344.53;4139657;28;20211;-84
2023/01/27 05:08:56;;;;;;;19.85;11.23;;;;;;;2.13;85.89;98348.00;4155651;28;20305;-84
2023/01/27 05:11:20;;;;;;;17.17;10.82;;;;;;;2.18;85.80;98343.53;4170832;28;20217;-84
2023/01/27 05:13:45;;;;;;;16.40;11.68;;;;;;;2.02;85.35;98345.75;4152378;28;20238;-84
2023/01/27 05:16:10;;;;;;;18.70;11.55;;;;;;;1.75;85.87;98338.03;4152879;28;20218;-83
2023/01/27 05:18:34;;;;;;;18.15;11.55;;;;;;;1.61;86.14;98342.75;4159046;28;20210;-84
2023/01/27 05:20:58;;;;;;;19.45;12.52;;;;;;;1.47;86.82;98333.75;4143022;28;20211;-83
2023/01/27 05:23:36;;;;;;;19.70;11.32;;;;;;;1.27;86.74;98340.34;4153803;28;20242;-83
2023/01/27 05:26:02;;;;;;;18.70;11.35;;;;;;;1.20;87.81;98338.84;4164772;28;20198;-83
2023/01/27 05:28:26;;;;;;;17.10;11.27;;;;;;;1.14;87.91;98328.72;4139642;28;20223;-83
2023/01/27 05:30:52;;;;;;;19.00;12.00;;;;;;;1.12;87.95;98338.22;4151713;28;20576;-85
2023/01/27 05:33:16;;;;;;;20.48;12.32;;;;;;;1.08;87.65;98339.16;4157510;28;20622;-85
2023/01/27 05:35:39;;;;;;;20.08;12.05;;;;;;;1.05;88.02;98334.13;4165483;28;20273;-84
2023/01/27 05:38:03;;;;;;;15.75;10.40;;;;;;;0.98;87.34;98340.31;4151738;28;20253;-84
2023/01/27 05:40:26;;;;;;;27.95;15.40;;;;;;;0.93;87.65;98338.75;4141659;28;20532;-87
2023/01/27 05:42:51;;;;;;;20.77;12.20;;;;;;;0.93;87.79;98338.75;4170159;28;20229;-86
2023/01/27 05:45:14;;;;;;;23.75;13.00;;;;;;;1.00;87.58;98333.41;4142121;28;20235;-86
2023/01/27 05:47:40;;;;;;;21.20;13.02;;;;;;;0.96;88.12;98342.94;4143641;28;20209;-86
2023/01/27 05:50:03;;;;;;;21.05;12.88;;;;;;;0.97;87.69;98342.03;4161960;28;20228;-86
2023/01/27 05:52:26;;;;;;;19.10;11.50;;;;;;;1.03;88.04;98341.84;4145111;28;20211;-86
2023/01/27 05:54:50;;;;;;;21.02;12.32;;;;;;;1.07;87.78;98352.91;4152333;28;20263;-85
2023/01/27 05:57:13;;;;;;;17.95;11.63;;;;;;;1.03;87.97;98351.28;4157408;28;20272;-84
2023/01/27 05:59:37;;;;;;;17.10;11.77;;;;;;;1.07;87.43;98351.16;4166672;28;20195;-84
2023/01/27 06:02:00;;;;;;;17.92;10.95;;;;;;;1.06;86.93;98352.03;4154940;28;20210;-84
2023/01/27 06:04:25;;;;;;;19.45;11.32;;;;;;;1.03;86.78;98348.72;4148501;28;20624;-84
2023/01/27 06:06:48;;;;;;;18.25;11.50;;;;;;;1.04;87.42;98347.84;4152830;28;20282;-84
2023/01/27 06:09:12;;;;;;;17.80;11.35;;;;;;;1.05;87.19;98350.38;4152988;28;20662;-86
2023/01/27 06:11:35;;;;;;;17.67;11.65;;;;;;;1.07;87.27;98343.47;4169130;28;20650;-86
2023/01/27 06:13:59;;;;;;;17.85;11.35;;;;;;;1.04;87.36;98348.69;4152877;28;20281;-86
2023/01/27 06:16:22;;;;;;;20.08;12.02;;;;;;;1.01;87.70;98355.63;4144367;28;20208;-86
2023/01/27 06:18:46;;;;;;;17.05;10.80;;;;;;;1.00;87.28;98348.81;4158815;28;20211;-86
2023/01/27 06:21:12;;;;;;;17.70;11.45;;;;;;;0.90;87.61;98355.06;4141697;28;20207;-86
2023/01/27 06:23:35;;;;;;;18.10;11.27;;;;;;;0.94;87.99;98366.94;4169363;28;20214;-85
2023/01/27 06:26:02;;;;;;;21.13;12.15;;;;;;;1.00;87.43;98365.03;4170025;28;20221;-86
2023/01/27 06:28:28;;;;;;;18.55;12.23;;;;;;;1.03;88.23;98371.84;4170414;28;20241;-86
2023/01/27 06:30:52;;;;;;;18.38;12.00;;;;;;;1.10;87.54;98373.38;4156435;28;20195;-86
2023/01/27 06:33:16;;;;;;;19.35;11.05;;;;;;;1.18;87.46;98376.56;4166932;28;20595;-86
2023/01/27 06:35:40;;;;;;;19.50;10.98;;;;;;;1.07;86.48;98363.19;4168965;28;20218;-86
2023/01/27 06:38:06;;;;;;;16.67;10.60;;;;;;;0.95;86.95;98368.63;4168556;28;20305;-86
2023/01/27 06:40:31;;;;;;;25.15;12.95;;;;;;;0.89;87.26;98384.19;4146896;28;20207;-86
2023/01/27 06:42:54;;;;;;;21.15;11.60;;;;;;;0.75;86.77;98382.84;4141908;28;20601;-86
2023/01/27 06:45:17;;;;;;;16.40;10.77;;;;;;;0.66;86.46;98378.81;4155894;28;20234;-85
2023/01/27 06:47:41;;;;;;;17.63;10.70;;;;;;;0.60;86.11;98381.53;4143389;28;20946;-86
2023/01/27 06:50:05;;;;;;;18.27;10.52;;;;;;;0.56;86.21;98397.88;4144154;28;20246;-86
2023/01/27 06:52:28;;;;;;;17.80;10.95;;;;;;;0.55;86.92;98398.72;4152764;28;20265;-86
2023/01/27 06:54:53;;;;;;;18.90;10.75;;;;;;;0.61;86.87;98403.72;4169753;28;20760;-86
2023/01/27 06:57:16;;;;;;;22.15;11.73;;;;;;;0.70;87.82;98418.03;4157139;28;20207;-86
2023/01/27 06:59:39;;;;;;;20.92;12.50;;;;;;;0.80;87.67;98412.66;4153088;28;20292;-86
2023/01/27 07:02:03;;;;;;;28.15;11.98;;;;;;;0.92;87.90;98414.06;4158276;28;20230;-86
2023/01/27 07:04:26;;;;;;;22.73;12.35;;;;;;;0.93;86.67;98407.19;4140546;28;20220;-86
2023/01/27 07:06:49;;;;;;;24.83;15.68;;;;;;;0.95;86.46;98410.53;4145418;28;20239;-86
2023/01/27 07:09:13;;;;;;;24.63;13.95;;;;;;;0.98;85.98;98402.75;4169434;28;20737;-85
2023/01/27 07:11:37;;;;;;;20.42;11.65;;;;;;;1.04;86.26;98407.72;4155183;28;20698;-86
2023/01/27 07:14:01;;;;;;;21.27;12.18;;;;;;;1.13;85.94;98419.50;4170954;28;20225;-86
2023/01/27 07:16:25;;;;;;;21.55;12.48;;;;;;;1.10;85.06;98419.56;4142319;28;20283;-86
2023/01/27 07:18:48;;;;;;;22.10;11.80;;;;;;;1.05;85.07;98423.97;4137976;28;20291;-86
2023/01/27 07:21:11;;;;;;;21.88;12.18;;;;;;;1.06;85.84;98430.78;4165996;28;20261;-86
2023/01/27 07:23:35;;;;;;;20.60;11.52;;;;;;;1.03;85.53;98434.28;4170151;28;20653;-84
2023/01/27 07:26:01;;;;;;;22.48;12.90;;;;;;;1.04;85.82;98435.97;4171532;28;20280;-84
2023/01/27 07:28:29;;;;;;;26.13;13.25;;;;;;;1.05;86.27;98436.81;4161625;28;20205;-85
2023/01/27 07:30:52;;;;;;;22.60;12.68;;;;;;;1.08;85.65;98449.56;4140927;28;20249;-84
2023/01/27 07:33:16;;;;;;;25.08;13.40;;;;;;;1.13;86.04;98451.13;4166289;28;20372;-85
2023/01/27 07:35:40;;;;;;;23.10;12.70;;;;;;;1.19;86.01;98457.81;4158122;28;20285;-85
2023/01/27 07:38:04;;;;;;;33.45;15.52;;;;;;;1.02;85.61;98442.00;4147035;28;20254;-85
2023/01/27 07:40:27;;;;;;;22.73;12.15;;;;;;;0.93;86.30;98440.53;4174703;28;20741;-85
2023/01/27 07:42:51;;;;;;;25.15;13.55;;;;;;;0.84;86.75;98441.63;4168729;28;20264;-85
2023/01/27 07:45:16;;;;;;;28.73;14.30;;;;;;;0.67;87.27;98438.66;4158113;28;20207;-85
2023/01/27 07:47:40;;;;;;;33.22;15.63;;;;;;;0.66;88.23;98436.94;4156372;28;20199;-87
2023/01/27 07:50:03;;;;;;;27.70;14.65;;;;;;;0.71;88.52;98445.41;4152834;28;20218;-87
2023/01/27 07:52:27;;;;;;;30.67;14.30;;;;;;;0.72;88.37;98447.94;4154964;28;20208;-87
2023/01/27 07:54:50;;;;;;;28.85;15.30;;;;;;;0.80;88.09;98450.28;4150735;28;20218;-87
2023/01/27 07:57:14;;;;;;;34.70;16.70;;;;;;;0.94;88.59;98459.34;4139493;28;20693;-87
2023/01/27 07:59:37;;;;;;;27.42;13.50;;;;;;;1.08;88.63;98463.25;4154119;28;20677;-86
2023/01/27 08:02:02;;;;;;;36.13;20.40;;;;;;;1.12;88.25;98469.16;4153648;28;20211;-86
2023/01/27 08:04:25;;;;;;;27.23;14.32;;;;;;;1.21;88.47;98469.75;4144081;28;20323;-86
2023/01/27 08:06:48;;;;;;;29.77;16.23;;;;;;;1.25;87.27;98468.78;4172456;28;20209;-86
2023/01/27 08:09:12;;;;;;;32.83;17.67;;;;;;;1.35;87.37;98470.22;4153760;28;20211;-86
2023/01/27 08:11:35;;;;;;;32.20;15.65;;;;;;;1.41;87.78;98473.50;4165366;28;20243;-84
2023/01/27 08:13:59;;;;;;;35.35;17.38;;;;;;;1.47;87.45;98469.91;4136961;28;20231;-84
2023/01/27 08:16:22;;;;;;;27.00;14.70;;;;;;;1.56;86.99;98473.06;4149433;28;20212;-84
2023/01/27 08:18:47;;;;;;;33.35;16.77;;;;;;;1.61;86.38;98471.22;4143273;28;20210;-83
2023/01/27 08:21:12;;;;;;;32.17;15.80;;;;;;;1.58;86.08;98473.88;4149607;28;20566;-83
2023/01/27 08:23:35;;;;;;;29.70;14.63;;;;;;;1.70;86.21;98476.13;4168312;28;20597;-83
2023/01/27 08:26:00;;;;;;;27.02;15.55;;;;;;;1.78;85.66;98479.31;4171309;28;20210;-85
2023/01/27 08:28:24;;;;;;;27.70;14.80;;;;;;;1.83;85.28;98489.47;4156139;28;20211;-82
2023/01/27 08:30:50;;;;;;;28.05;14.45;;;;;;;1.78;84.36;98489.59;4169186;28;20295;-82
2023/01/27 08:33:14;;;;;;;23.92;13.13;;;;;;;1.73;84.14;98488.03;4170466;28;20206;-82
2023/01/27 08:35:43;;;;;;;25.60;12.65;;;;;;;1.71;84.43;98480.34;4154679;28;20218;-82
2023/01/27 08:38:06;;;;;;;22.90;13.63;;;;;;;1.76;84.11;98483.66;4158387;28;20549;-82
2023/01/27 08:40:30;;;;;;;39.75;27.58;;;;;;;1.63;83.61;98495.16;4153185;28;20449;-82
2023/01/27 08:42:53;;;;;;;37.88;21.95;;;;;;;1.61;83.76;98493.50;4155324;28;20249;-83
2023/01/27 08:45:17;;;;;;;26.23;13.20;;;;;;;1.63;83.82;98492.56;4143097;28;20224;-83
2023/01/27 08:47:40;;;;;;;78.18;41.17;;;;;;;1.61;84.08;98485.78;4154977;28;20701;-83
2023/01/27 08:50:04;;;;;;;53.30;29.92;;;;;;;1.63;84.56;98484.03;4154170;28;20701;-82
2023/01/27 08:52:08;;;;;;;107.30;55.85;;;;;;;1.66;84.32;98478.81;4137401;28;20263;-82
2023/01/27 08:54:11;;;;;;;37.45;19.60;;;;;;;1.72;84.62;98488.94;4150918;28;20203;-83
2023/01/27 08:56:15;;;;;;;39.72;21.80;;;;;;;1.81;84.75;98488.69;4152384;28;20626;-82
2023/01/27 08:58:18;;;;;;;23.33;13.20;;;;;;;1.84;84.83;98474.00;4126204;28;20613;-83
2023/01/27 09:00:22;;;;;;;22.77;12.43;;;;;;;1.89;85.22;98472.13;4141873;28;20638;-83
2023/01/27 09:02:25;;;;;;;22.58;11.90;;;;;;;1.88;84.11;98481.59;4142953;28;20215;-83
2023/01/27 09:04:29;;;;;;;20.15;10.50;;;;;;;1.93;83.80;98484.03;4161908;28;20683;-82
2023/01/27 09:06:33;;;;;;;20.30;11.43;;;;;;;2.00;83.72;98491.53;4130810;28;20301;-82
2023/01/27 09:08:37;;;;;;;23.63;11.98;;;;;;;2.04;84.12;98490.53;4153728;28;20958;-83
2023/01/27 09:10:41;;;;;;;46.85;22.55;;;;;;;2.10;83.15;98494.66;4140314;28;20226;-83
2023/01/27 09:12:44;;;;;;;33.58;17.65;;;;;;;2.09;83.11;98490.41;4171126;28;20198;-82
2023/01/27 09:14:48;;;;;;;36.63;17.45;;;;;;;2.12;83.41;98496.31;4173476;28;20210;-82
2023/01/27 09:16:51;;;;;;;18.05;10.00;;;;;;;2.15;83.19;98495.38;4138850;28;20254;-83
2023/01/27 09:18:54;;;;;;;16.17;10.30;;;;;;;2.15;83.12;98493.66;4171697;28;20669;-84
2023/01/27 09:20:57;;;;;;;27.75;17.25;;;;;;;2.20;83.47;98496.09;4152681;28;20710;-85
2023/01/27 09:23:00;;;;;;;25.15;13.02;;;;;;;2.16;82.57;98492.75;4173710;28;20674;-84
2023/01/27 09:25:05;;;;;;;46.53;17.63;;;;;;;2.08;82.38;98493.88;4172034;28;20267;-83
2023/01/27 09:27:08;;;;;;;24.10;12.98;;;;;;;1.87;82.45;98490.16;4142480;28;20220;-83
2023/01/27 09:29:11;;;;;;;14.93;9.25;;;;;;;1.79;82.49;98488.72;4167938;28;20206;-83
2023/01/27 09:31:14;;;;;;;16.10;10.90;;;;;;;1.71;82.45;98490.63;4174962;28;20221;-82
2023/01/27 09:33:17;;;;;;;13.98;7.88;;;;;;;1.54;81.82;98487.69;4151778;28;20218;-82
2023/01/27 09:35:20;;;;;;;14.57;7.93;;;;;;;1.60;81.75;98490.09;4168221;28;20214;-82
2023/01/27 09:37:23;;;;;;;15.73;8.70;;;;;;;1.61;81.82;98496.91;4175327;28;20604;-82
2023/01/27 09:39:30;;;;;;;12.32;7.82;;;;;;;1.63;82.46;98484.88;4155757;28;20612;-82
2023/01/27 09:41:56;;;;;;;17.23;10.02;;;;;;;1.75;83.30;98494.81;4155198;28;20206;-83
2023/01/27 09:44:14;;;;;;;15.90;9.55;;;;;;;1.82;83.19;98495.47;4168018;28;20261;-83
2023/01/27 09:46:51;;;;;;;14.77;8.25;;;;;;;1.79;82.25;98491.28;4154636;28;20210;-82
2023/01/27 09:49:08;;;;;;;10.70;7.07;;;;;;;1.75;81.28;98499.94;4168437;28;20669;-82
2023/01/27 09:51:16;;;;;;;12.70;7.95;;;;;;;1.80;81.43;98505.81;4150253;28;20234;-82
2023/01/27 09:53:43;;;;;;;13.00;7.93;;;;;;;1.95;82.25;98505.38;4151757;28;20206;-83
2023/01/27 09:55:51;;;;;;;13.82;8.63;;;;;;;2.03;82.54;98490.56;4164813;28;20214;-82
2023/01/27 09:58:00;;;;;;;12.25;8.00;;;;;;;1.99;81.86;98494.13;4159293;28;20210;-82
2023/01/27 10:00:13;;;;;;;12.65;8.43;;;;;;;1.80;82.77;98492.13;4175067;28;20264;-82
2023/01/27 10:02:31;;;;;;;27.73;13.38;;;;;;;1.68;82.42;98492.44;4177780;28;20281;-82
2023/01/27 10:04:48;;;;;;;14.20;9.70;;;;;;;1.69;82.70;98494.97;4176334;28;20717;-83
2023/01/27 10:07:06;;;;;;;15.65;10.63;;;;;;;1.84;83.51;98498.88;4163870;28;20297;-82
2023/01/27 10:09:37;;;;;;;16.58;9.73;;;;;;;1.91;83.16;98501.22;4173069;28;20229;-83
2023/01/27 10:11:46;;;;;;;15.82;8.98;;;;;;;1.97;83.06;98507.03;4156406;28;20656;-83
2023/01/27 10:14:02;;;;;;;15.57;9.40;;;;;;;2.03;83.15;98513.72;4174264;28;20713;-82
2023/01/27 10:16:16;;;;;;;19.85;10.63;;;;;;;2.08;82.61;98505.00;4143504;28;20300;-82
2023/01/27 10:18:32;;;;;;;20.77;11.52;;;;;;;2.19;82.69;98508.09;4138900;28;20238;-82
2023/01/27 10:20:40;;;;;;;20.73;11.20;;;;;;;2.23;82.36;98503.72;4144686;28;20352;-82
2023/01/27 10:22:51;;;;;;;21.05;11.30;;;;;;;2.19;82.12;98495.22;4160539;28;20577;-82
2023/01/27 10:25:07;;;;;;;18.10;10.68;;;;;;;2.22;83.01;98507.16;4177465;28;20194;-82
2023/01/27 10:27:16;;;;;;;21.95;11.50;;;;;;;2.26;82.73;98501.06;4136682;28;20200;-83
2023/01/27 10:29:25;;;;;;;17.63;10.80;;;;;;;2.26;82.37;98503.63;4159448;28;20277;-82
2023/01/27 10:31:33;;;;;;;21.02;11.38;;;;;;;2.26;82.57;98506.22;4143147;28;20230;-82
2023/01/27 10:33:47;;;;;;;19.67;10.85;;;;;;;2.31;82.59;98506.91;4156677;28;20210;-82
2023/01/27 10:35:52;;;;;;;18.73;10.30;;;;;;;2.33;82.51;98514.53;4158696;28;20245;-82
2023/01/27 10:38:07;;;;;;;18.88;11.23;;;;;;;2.42;83.16;98506.53;4156995;28;20221;-82
2023/01/27 10:40:18;;;;;;;22.20;13.95;;;;;;;2.48;82.54;98511.50;4157023;28;20211;-82
2023/01/27 10:42:28;;;;;;;20.20;12.40;;;;;;;2.54;82.82;98516.47;4171678;28;20686;-81
2023/01/27 10:44:46;;;;;;;22.48;12.18;;;;;;;2.54;82.21;98515.59;4168739;28;20698;-82
2023/01/27 10:46:56;;;;;;;19.92;11.40;;;;;;;2.56;83.18;98524.97;4151542;28;20207;-81
2023/01/27 10:49:03;;;;;;;20.02;10.98;;;;;;;2.59;82.14;98517.16;4148773;28;20203;-82
2023/01/27 10:51:10;;;;;;;22.10;10.70;;;;;;;2.57;82.72;98516.38;4130958;28;20211;-82
2023/01/27 10:53:16;;;;;;;21.67;11.23;;;;;;;2.62;82.49;98517.06;4155995;28;20205;-82
2023/01/27 10:55:24;;;;;;;19.38;11.32;;;;;;;2.57;82.43;98510.38;4168532;28;20210;-82
2023/01/27 10:57:30;;;;;;;18.63;11.20;;;;;;;2.59;83.03;98513.75;4148301;28;20209;-81
2023/01/27 10:59:40;;;;;;;20.80;11.02;;;;;;;2.63;82.86;98515.34;4151942;28;20265;-82
2023/01/27 11:01:45;;;;;;;19.48;12.05;;;;;;;2.67;81.92;98511.78;4156786;28;20207;-82
2023/01/27 11:03:53;;;;;;;18.20;10.80;;;;;;;2.67;82.70;98512.63;4152851;28;20209;-82
2023/01/27 11:05:59;;;;;;;20.45;12.18;;;;;;;2.73;82.64;98511.59;4143386;28;20227;-82
2023/01/27 11:08:04;;;;;;;22.10;12.57;;;;;;;2.71;81.66;98503.09;4159165;28;20301;-82